Time;durP1;ratioP1;P1;durP2;ratioP2;P2;SDS_P1;SDS_P2;PMS_P1;PMS_P2;Temp;Humidity;BMP_temperature;BMP_pressure;BME280_temperature;BME280_humidity;BME280_pressure;Samples;Min_cycle;Max_cycle;Signal;HPM_P1;HPM_P2
2022/09/04 00:02:01;;;;;;;2.03;1.02;;;;;;;15.86;100.00;101140.59;5049201;28;20417;-76
2022/09/04 00:04:46;;;;;;;2.05;0.80;;;;;;;15.90;100.00;101147.28;5043731;28;20029;-77
2022/09/04 00:07:25;;;;;;;3.25;0.73;;;;;;;15.83;100.00;101132.91;5039630;28;20048;-77
2022/09/04 00:09:57;;;;;;;3.15;0.77;;;;;;;15.86;100.00;101147.84;5043721;28;20504;-77
2022/09/04 00:12:31;;;;;;;8.43;0.98;;;;;;;15.80;100.00;101125.19;5043136;28;20434;-77
2022/09/04 00:15:06;;;;;;;2.00;0.88;;;;;;;15.85;100.00;101105.78;5026278;28;20478;-76
2022/09/04 00:17:43;;;;;;;2.13;0.98;;;;;;;15.80;100.00;101095.56;5033897;28;20039;-77
2022/09/04 00:20:27;;;;;;;3.05;0.90;;;;;;;15.81;100.00;101124.16;5041479;28;20052;-77
2022/09/04 00:23:03;;;;;;;2.28;1.13;;;;;;;15.87;100.00;101123.41;5043190;28;20070;-77
2022/09/04 00:25:56;;;;;;;3.95;1.02;;;;;;;15.82;100.00;101086.28;5051054;28;20032;-77
2022/09/04 00:28:33;;;;;;;4.60;0.90;;;;;;;15.78;100.00;101103.84;5042248;28;20041;-77
2022/09/04 00:31:35;;;;;;;4.38;0.90;;;;;;;15.82;100.00;101120.44;5041634;28;20036;-77
2022/09/04 00:34:19;;;;;;;2.22;0.70;;;;;;;15.87;100.00;101136.84;5010005;28;20524;-77
2022/09/04 00:36:49;;;;;;;2.15;0.93;;;;;;;15.87;100.00;101109.94;5054800;28;20036;-77
2022/09/04 00:39:20;;;;;;;2.17;1.10;;;;;;;15.88;100.00;101100.84;5039690;28;20040;-77
2022/09/04 00:42:03;;;;;;;2.20;1.40;;;;;;;15.93;100.00;101090.34;5043815;28;20044;-77
2022/09/04 00:45:06;;;;;;;4.95;1.17;;;;;;;15.86;100.00;101110.97;5032358;28;20039;-77
2022/09/04 00:47:44;;;;;;;1.88;1.00;;;;;;;15.88;100.00;101098.16;5016570;28;20028;-77
2022/09/04 00:50:34;;;;;;;1.23;0.85;;;;;;;15.90;100.00;101114.13;5024099;28;20041;-77
2022/09/04 00:53:05;;;;;;;3.63;1.10;;;;;;;15.88;100.00;101065.84;5059162;28;20036;-76
2022/09/04 00:55:30;;;;;;;3.38;1.23;;;;;;;15.86;100.00;101035.59;5015613;28;20399;-77
2022/09/04 00:58:23;;;;;;;4.73;1.13;;;;;;;15.90;100.00;101047.66;5021797;28;20029;-77
2022/09/04 01:00:48;;;;;;;5.72;1.05;;;;;;;15.85;100.00;101041.16;5020156;28;20124;-77
2022/09/04 01:03:21;;;;;;;3.17;1.05;;;;;;;15.88;100.00;101041.63;5041490;28;20127;-77
2022/09/04 01:06:17;;;;;;;1.52;0.80;;;;;;;15.83;100.00;100995.59;5043315;28;20032;-77
2022/09/04 01:09:09;;;;;;;3.72;1.00;;;;;;;15.82;100.00;101018.13;5031053;28;20403;-77
2022/09/04 01:11:42;;;;;;;2.55;1.02;;;;;;;15.81;100.00;100978.81;5020281;28;20148;-77
2022/09/04 01:14:17;;;;;;;1.63;0.80;;;;;;;15.78;100.00;100976.47;5038899;28;20041;-77
2022/09/04 01:17:08;;;;;;;1.45;1.25;;;;;;;15.85;100.00;100985.47;5043271;28;20039;-77
2022/09/04 01:19:49;;;;;;;3.55;1.10;;;;;;;15.81;100.00;100981.50;5050586;28;20040;-77
2022/09/04 01:22:33;;;;;;;3.83;1.00;;;;;;;15.74;100.00;100970.66;5057082;28;20029;-77
2022/09/04 01:25:23;;;;;;;3.67;1.10;;;;;;;15.77;100.00;100947.91;5058574;28;20040;-77
2022/09/04 01:28:13;;;;;;;1.50;0.80;;;;;;;15.72;100.00;100967.31;5033255;28;20072;-77
2022/09/04 01:30:49;;;;;;;2.08;0.98;;;;;;;15.67;100.00;100960.81;5051612;28;20401;-77
2022/09/04 01:33:26;;;;;;;1.23;0.95;;;;;;;15.68;100.00;100981.31;5038880;28;20056;-77
2022/09/04 01:36:34;;;;;;;3.40;0.90;;;;;;;15.68;100.00;100954.41;5059756;28;20036;-77
2022/09/04 01:39:01;;;;;;;2.85;1.05;;;;;;;15.64;100.00;100921.66;5046080;28;20041;-77
2022/09/04 01:41:44;;;;;;;1.73;0.90;;;;;;;15.63;100.00;100928.88;5060122;28;20017;-77
2022/09/04 01:44:11;;;;;;;3.42;0.77;;;;;;;15.60;100.00;100891.59;5039874;28;20079;-77
2022/09/04 01:46:46;;;;;;;3.15;1.00;;;;;;;15.58;100.00;100923.25;5060463;28;20032;-77
2022/09/04 01:49:35;;;;;;;4.35;1.30;;;;;;;15.54;100.00;100946.16;5055892;28;20028;-77
2022/09/04 01:52:06;;;;;;;2.00;1.27;;;;;;;15.57;100.00;100932.34;5026928;28;20106;-77
2022/09/04 01:55:00;;;;;;;4.57;1.42;;;;;;;15.59;100.00;100935.69;5015355;28;20496;-77
2022/09/04 01:57:38;;;;;;;1.80;0.95;;;;;;;15.59;100.00;100913.31;5041453;28;20127;-77
2022/09/04 02:00:24;;;;;;;2.40;0.80;;;;;;;15.50;100.00;100888.41;5042293;28;20044;-77
2022/09/04 02:03:08;;;;;;;2.28;1.15;;;;;;;15.57;100.00;100891.16;5058545;28;20043;-77
2022/09/04 02:05:49;;;;;;;2.20;1.10;;;;;;;15.54;100.00;100888.84;5033817;28;20047;-77
2022/09/04 02:08:28;;;;;;;2.95;1.38;;;;;;;15.55;100.00;100883.28;5042738;28;20044;-78
2022/09/04 02:11:16;;;;;;;2.10;0.90;;;;;;;15.49;100.00;100878.63;5024737;28;20044;-77
2022/09/04 02:14:14;;;;;;;1.70;0.90;;;;;;;15.47;100.00;100891.44;5056491;28;20405;-77
2022/09/04 02:17:17;;;;;;;2.67;0.90;;;;;;;15.45;100.00;100882.72;5037972;28;20041;-77
2022/09/04 02:20:04;;;;;;;4.03;1.20;;;;;;;15.42;100.00;100893.88;5037567;28;20489;-77
2022/09/04 02:22:44;;;;;;;5.75;1.10;;;;;;;15.41;100.00;100871.53;5012686;28;20033;-77
2022/09/04 02:25:14;;;;;;;1.80;0.90;;;;;;;15.40;100.00;100904.84;5034978;28;20033;-77
2022/09/04 02:27:49;;;;;;;3.03;1.00;;;;;;;15.43;100.00;100911.72;5045975;28;20145;-77
2022/09/04 02:30:17;;;;;;;8.68;1.40;;;;;;;15.41;100.00;100908.38;5058257;28;20044;-77
2022/09/04 02:33:01;;;;;;;3.40;1.10;;;;;;;15.44;100.00;100918.75;5044860;28;20047;-77
2022/09/04 02:36:06;;;;;;;2.72;1.10;;;;;;;15.44;100.00;100909.84;5044981;28;20036;-77
2022/09/04 02:38:54;;;;;;;3.85;1.00;;;;;;;15.41;100.00;100894.94;5034929;28;20098;-77
2022/09/04 02:41:36;;;;;;;3.05;1.20;;;;;;;15.30;100.00;100892.72;5025399;28;20037;-77
2022/09/04 02:44:43;;;;;;;1.27;0.75;;;;;;;15.37;100.00;100963.56;5043215;28;20043;-77
2022/09/04 02:47:30;;;;;;;1.20;0.88;;;;;;;15.30;100.00;100973.41;5039980;28;20106;-77
2022/09/04 02:50:18;;;;;;;2.22;1.25;;;;;;;15.32;100.00;100929.16;5061865;28;20029;-77
2022/09/04 02:53:08;;;;;;;4.55;1.02;;;;;;;15.32;100.00;100912.19;5021014;28;20064;-77
2022/09/04 02:56:12;;;;;;;1.98;1.20;;;;;;;15.32;100.00;100945.31;5052963;28;20036;-77
2022/09/04 02:59:10;;;;;;;1.50;1.00;;;;;;;15.33;100.00;100973.03;5043654;28;20604;-77
2022/09/04 03:01:56;;;;;;;4.63;1.42;;;;;;;15.29;100.00;100969.91;5022601;28;20040;-77
2022/09/04 03:04:33;;;;;;;3.70;1.15;;;;;;;15.23;100.00;100999.41;5042066;28;20490;-77
2022/09/04 03:07:08;;;;;;;3.88;1.45;;;;;;;15.19;100.00;101020.44;5043141;28;20036;-77
2022/09/04 03:09:56;;;;;;;2.33;1.10;;;;;;;15.23;100.00;101037.06;5033388;28;20037;-77
2022/09/04 03:12:52;;;;;;;4.97;1.23;;;;;;;15.18;100.00;101041.13;5025057;28;20088;-77
2022/09/04 03:15:34;;;;;;;5.80;1.20;;;;;;;15.17;100.00;101033.22;5041218;28;20499;-78
2022/09/04 03:18:17;;;;;;;2.20;0.95;;;;;;;15.18;100.00;101048.38;5027740;28;20040;-77
2022/09/04 03:21:08;;;;;;;3.75;1.05;;;;;;;15.18;100.00;101057.25;5056570;28;20040;-77
2022/09/04 03:23:56;;;;;;;4.15;1.13;;;;;;;15.17;100.00;101078.94;5037906;28;20036;-77
2022/09/04 03:26:28;;;;;;;3.03;1.10;;;;;;;15.23;100.00;101085.47;5045779;28;20060;-77
2022/09/04 03:29:07;;;;;;;2.90;0.85;;;;;;;15.19;100.00;101072.41;5064593;28;20048;-77
2022/09/04 03:31:33;;;;;;;2.13;1.13;;;;;;;15.22;100.00;101067.63;5020022;28;20037;-77
2022/09/04 03:34:10;;;;;;;2.00;0.83;;;;;;;15.20;100.00;101087.50;5024284;28;20094;-77
2022/09/04 03:36:57;;;;;;;1.70;1.30;;;;;;;15.17;100.00;101071.75;5023288;28;20501;-77
2022/09/04 03:40:02;;;;;;;3.85;1.02;;;;;;;15.17;100.00;101054.75;5042264;28;20755;-78
2022/09/04 03:42:34;;;;;;;;;;;;;;;15.21;100.00;101015.72;5044651;28;20020;-77
2022/09/04 03:45:45;;;;;;;3.17;1.00;;;;;;;15.22;100.00;101019.22;5043301;28;19988;-77
2022/09/04 03:48:45;;;;;;;2.33;1.10;;;;;;;15.22;100.00;100992.34;4978430;28;20038;-77
2022/09/04 03:51:28;;;;;;;1.65;1.17;;;;;;;15.10;100.00;101006.28;5019986;28;20041;-77
2022/09/04 03:54:00;;;;;;;2.40;0.90;;;;;;;15.12;100.00;101068.75;5051206;28;20045;-76
2022/09/04 03:56:35;;;;;;;4.43;1.45;;;;;;;15.14;100.00;101103.53;5043284;28;20090;-77
2022/09/04 03:59:07;;;;;;;4.43;1.10;;;;;;;15.07;100.00;101076.53;5038067;28;20056;-77
2022/09/04 04:01:32;;;;;;;3.53;1.50;;;;;;;15.06;100.00;101063.28;5034926;28;20044;-77
2022/09/04 04:04:22;;;;;;;2.33;1.00;;;;;;;15.03;100.00;101063.66;5056628;28;20021;-77
2022/09/04 04:06:56;;;;;;;6.35;1.05;;;;;;;15.05;100.00;101046.31;5021184;28;20408;-77
2022/09/04 04:09:32;;;;;;;4.05;1.00;;;;;;;15.01;100.00;101023.53;5058389;28;20061;-77
2022/09/04 04:12:24;;;;;;;2.03;1.10;;;;;;;15.00;100.00;100984.19;5039333;28;20091;-77
2022/09/04 04:15:06;;;;;;;2.88;1.23;;;;;;;14.98;100.00;100991.59;5034693;28;20398;-77
2022/09/04 04:17:42;;;;;;;3.45;1.52;;;;;;;14.91;100.00;101014.88;5033258;28;20056;-77
2022/09/04 04:20:43;;;;;;;;;;;;;;;14.89;100.00;101033.03;5042198;28;20076;-77
2022/09/04 04:23:56;;;;;;;2.35;1.10;;;;;;;14.90;100.00;101011.34;4979388;28;19950;-76
2022/09/04 04:26:28;;;;;;;4.35;1.10;;;;;;;14.94;100.00;100995.72;5041543;28;20095;-77
2022/09/04 04:29:14;;;;;;;1.70;1.10;;;;;;;14.89;100.00;100979.28;5043124;28;20041;-77
2022/09/04 04:32:10;;;;;;;2.05;1.52;;;;;;;14.86;100.00;100983.16;5024813;28;20028;-77
2022/09/04 04:35:00;;;;;;;7.85;1.80;;;;;;;14.82;100.00;100973.81;5050685;28;20458;-77
2022/09/04 04:37:56;;;;;;;5.20;1.40;;;;;;;14.83;100.00;100975.47;5054357;28;20044;-77
2022/09/04 04:40:56;;;;;;;2.33;0.90;;;;;;;14.89;100.00;101003.47;5041069;28;20052;-76
2022/09/04 04:43:45;;;;;;;2.75;1.10;;;;;;;14.82;100.00;100984.59;5058089;28;20036;-77
2022/09/04 04:46:35;;;;;;;2.33;1.20;;;;;;;14.83;100.00;101005.06;5058836;28;20106;-77
2022/09/04 04:49:21;;;;;;;3.85;1.45;;;;;;;14.82;100.00;101000.72;5040939;28;20037;-77
2022/09/04 04:52:15;;;;;;;1.50;1.08;;;;;;;14.84;100.00;101000.50;5034181;28;20068;-77
2022/09/04 04:55:20;;;;;;;5.72;1.45;;;;;;;14.93;100.00;100961.75;5051206;28;20454;-77
2022/09/04 04:57:52;;;;;;;2.88;1.30;;;;;;;14.91;100.00;100859.81;4975262;28;20054;-77
2022/09/04 05:00:28;;;;;;;2.33;1.30;;;;;;;14.97;100.00;100906.59;5038946;28;20521;-77
2022/09/04 05:03:15;;;;;;;2.67;1.13;;;;;;;14.94;100.00;100888.19;5038843;28;20067;-77
2022/09/04 05:06:08;;;;;;;2.65;1.48;;;;;;;15.03;100.00;100905.00;5032552;28;20052;-77
2022/09/04 05:08:43;;;;;;;1.33;1.00;;;;;;;14.95;100.00;100900.59;5031383;28;20041;-76
2022/09/04 05:11:43;;;;;;;5.33;1.33;;;;;;;14.93;100.00;100894.56;5058255;28;20044;-77
2022/09/04 05:14:36;;;;;;;10.40;1.70;;;;;;;14.90;100.00;100897.63;5039581;28;20284;-77
2022/09/04 05:17:08;;;;;;;3.58;1.10;;;;;;;14.96;100.00;100926.44;5061151;28;20074;-77
2022/09/04 05:19:46;;;;;;;3.95;1.42;;;;;;;14.93;100.00;100891.88;5018788;28;20055;-76
2022/09/04 05:22:35;;;;;;;3.28;1.33;;;;;;;14.96;100.00;100934.50;5024815;28;20426;-77
2022/09/04 05:25:26;;;;;;;4.57;1.40;;;;;;;15.00;100.00;100943.88;5039119;28;20757;-77
2022/09/04 05:28:16;;;;;;;2.40;1.35;;;;;;;15.04;100.00;100914.75;5033344;28;20460;-77
2022/09/04 05:31:01;;;;;;;3.42;1.33;;;;;;;14.98;100.00;100949.44;5032044;28;20735;-77
2022/09/04 05:33:54;;;;;;;1.75;1.13;;;;;;;15.10;100.00;101000.03;5059448;28;20119;-76
2022/09/04 05:36:42;;;;;;;6.88;1.50;;;;;;;15.07;100.00;100960.91;5039682;28;20069;-77
2022/09/04 05:39:27;;;;;;;3.58;1.40;;;;;;;15.03;100.00;100994.59;5052120;28;20041;-77
2022/09/04 05:42:35;;;;;;;3.20;1.23;;;;;;;15.11;100.00;101060.88;5041954;28;20891;-76
2022/09/04 05:45:43;;;;;;;8.68;1.10;;;;;;;15.14;100.00;101093.59;5013315;28;20532;-77
2022/09/04 05:48:41;;;;;;;3.75;1.30;;;;;;;15.24;100.00;101149.84;5017963;28;20094;-77
2022/09/04 05:51:12;;;;;;;4.88;1.42;;;;;;;15.16;100.00;101128.41;5036495;28;20044;-76
2022/09/04 05:54:02;;;;;;;3.05;1.00;;;;;;;15.51;100.00;101236.34;5042580;28;20143;-77
2022/09/04 05:56:36;;;;;;;1.70;0.98;;;;;;;16.65;100.00;101215.28;5058850;28;20071;-77
2022/09/04 05:59:49;;;;;;;2.30;1.23;;;;;;;17.29;100.00;100918.47;5041068;28;20063;-75
2022/09/04 06:02:29;;;;;;;5.30;1.25;;;;;;;17.76;100.00;100780.88;5030422;28;20052;-77
2022/09/04 06:05:44;;;;;;;3.40;1.75;;;;;;;17.68;100.00;100673.94;5055294;28;20171;-77
2022/09/04 06:08:54;;;;;;;2.58;1.10;;;;;;;18.32;99.59;100671.44;5023788;28;20076;-77
2022/09/04 06:11:43;;;;;;;1.95;1.00;;;;;;;17.83;96.88;100500.06;5031723;28;20076;-77
2022/09/04 06:14:28;;;;;;;1.63;1.00;;;;;;;18.21;98.19;100666.72;5023719;28;20048;-76
2022/09/04 06:17:18;;;;;;;4.60;1.30;;;;;;;17.82;96.69;100537.03;5059659;28;20610;-77
2022/09/04 06:19:44;;;;;;;3.08;1.23;;;;;;;18.33;95.51;100667.69;5030972;28;20413;-77
2022/09/04 06:22:33;;;;;;;4.57;1.30;;;;;;;18.21;94.62;100620.78;5037601;28;20025;-77
2022/09/04 06:24:58;;;;;;;3.92;1.25;;;;;;;18.76;91.04;100626.47;5042156;28;20209;-75
2022/09/04 06:27:32;;;;;;;1.50;0.97;;;;;;;18.70;90.74;100606.53;5040259;28;20123;-76
2022/09/04 06:30:07;;;;;;;5.00;1.05;;;;;;;18.76;87.52;100516.44;5055488;28;20052;-78
2022/09/04 06:32:56;;;;;;;1.55;1.20;;;;;;;18.74;87.84;100558.25;5033190;28;20051;-76
2022/09/04 06:35:31;;;;;;;2.75;1.50;;;;;;;18.10;89.30;100469.13;5041231;28;20044;-77
2022/09/04 06:38:18;;;;;;;3.95;1.30;;;;;;;18.26;89.50;100572.31;5041037;28;20173;-76
2022/09/04 06:41:07;;;;;;;3.72;1.27;;;;;;;18.08;90.43;100576.59;5053479;28;20150;-77
2022/09/04 06:43:43;;;;;;;3.70;1.33;;;;;;;17.78;93.13;100654.59;5049933;28;20040;-77
2022/09/04 06:46:25;;;;;;;2.20;1.25;;;;;;;17.47;93.78;100594.03;5039827;28;20084;-78
2022/09/04 06:49:07;;;;;;;2.80;1.60;;;;;;;17.56;93.22;100623.47;5041374;28;20040;-77
2022/09/04 06:51:35;;;;;;;3.22;1.20;;;;;;;18.03;90.88;100659.31;5011049;28;20056;-77
2022/09/04 06:54:41;;;;;;;3.72;1.13;;;;;;;17.19;93.83;100572.72;5030222;28;20477;-76
2022/09/04 06:57:28;;;;;;;2.03;1.30;;;;;;;17.89;93.10;100774.66;5042510;28;20091;-77
2022/09/04 06:59:58;;;;;;;2.67;1.45;;;;;;;18.17;93.62;100860.00;5044290;28;20094;-76
2022/09/04 07:02:47;;;;;;;2.25;1.02;;;;;;;18.58;87.01;100670.47;5054947;28;20045;-77
2022/09/04 07:05:40;;;;;;;2.13;1.05;;;;;;;18.77;84.34;100590.28;5059753;28;20028;-77
2022/09/04 07:08:09;;;;;;;2.78;1.33;;;;;;;18.76;83.63;100575.09;5043172;28;20101;-76
2022/09/04 07:10:42;;;;;;;2.58;1.40;;;;;;;18.69;84.61;100656.25;5029043;28;20086;-75
2022/09/04 07:13:29;;;;;;;4.10;1.08;;;;;;;19.36;82.04;100720.72;5061486;28;20473;-79
2022/09/04 07:16:19;;;;;;;3.22;1.17;;;;;;;18.11;80.86;100306.00;5044286;28;20037;-78
2022/09/04 07:19:15;;;;;;;4.72;1.42;;;;;;;18.29;87.49;100761.06;5038806;28;20484;-78
2022/09/04 07:22:21;;;;;;;2.15;1.83;;;;;;;18.37;85.93;100714.88;5063466;28;20044;-77
2022/09/04 07:25:01;;;;;;;2.10;1.35;;;;;;;18.99;82.58;100715.19;5056630;28;20033;-77
2022/09/04 07:27:58;;;;;;;3.00;1.50;;;;;;;19.09;79.48;100574.00;5045211;28;20071;-78
2022/09/04 07:30:29;;;;;;;3.85;1.60;;;;;;;19.68;77.32;100636.69;5043323;28;20036;-78
2022/09/04 07:33:01;;;;;;;1.95;1.35;;;;;;;19.17;74.73;100312.06;5043868;28;20073;-77
2022/09/04 07:35:47;;;;;;;2.35;1.60;;;;;;;19.33;76.58;100531.69;5044887;28;20480;-78
2022/09/04 07:38:12;;;;;;;3.88;1.85;;;;;;;19.34;78.89;100712.84;5037765;28;20586;-78
2022/09/04 07:40:52;;;;;;;2.93;1.57;;;;;;;19.70;74.75;100565.03;5042666;28;20028;-78
2022/09/04 07:43:54;;;;;;;3.33;1.83;;;;;;;18.86;75.44;100388.00;5049480;28;20040;-77
2022/09/04 07:46:29;;;;;;;5.57;1.88;;;;;;;18.16;81.42;100596.28;5043054;28;20516;-78
2022/09/04 07:49:22;;;;;;;3.67;1.77;;;;;;;18.44;81.57;100699.44;5025427;28;20127;-78
2022/09/04 07:52:09;;;;;;;4.47;2.35;;;;;;;18.63;80.47;100704.97;5037225;28;20102;-79
2022/09/04 07:54:58;;;;;;;2.30;1.35;;;;;;;18.37;81.52;100671.63;5017118;28;20522;-77
2022/09/04 07:57:46;;;;;;;2.75;1.50;;;;;;;18.33;80.05;100595.56;5025950;28;20043;-79
2022/09/04 08:00:17;;;;;;;3.63;1.85;;;;;;;18.83;79.79;100740.06;5038330;28;20033;-78
2022/09/04 08:03:04;;;;;;;4.18;1.60;;;;;;;19.74;76.41;100782.09;5036168;28;20054;-79
2022/09/04 08:05:39;;;;;;;13.10;2.95;;;;;;;20.12;75.32;100829.88;5051936;28;20079;-78
2022/09/04 08:08:32;;;;;;;5.78;1.48;;;;;;;19.70;72.23;100455.88;5036218;28;20032;-79
2022/09/04 08:11:19;;;;;;;2.97;1.50;;;;;;;19.75;76.02;100792.69;5060930;28;20041;-79
2022/09/04 08:14:03;;;;;;;2.40;1.70;;;;;;;20.12;73.24;100689.78;5055546;28;20036;-78
2022/09/04 08:16:46;;;;;;;3.25;1.85;;;;;;;19.75;73.24;100622.03;5027976;28;20081;-79
2022/09/04 08:19:26;;;;;;;5.43;2.33;;;;;;;20.46;73.00;100817.63;5039756;28;20099;-77
2022/09/04 08:21:52;;;;;;;4.65;1.30;;;;;;;21.41;70.67;100916.69;5027441;28;20033;-78
2022/09/04 08:24:36;;;;;;;3.42;1.70;;;;;;;21.79;68.63;100825.84;5043913;28;20072;-79
2022/09/04 08:27:26;;;;;;;2.85;1.50;;;;;;;21.88;67.03;100694.81;5022695;28;20429;-78
2022/09/04 08:30:03;;;;;;;4.72;1.73;;;;;;;21.78;65.69;100563.34;5038222;28;20047;-78
2022/09/04 08:32:44;;;;;;;2.38;1.50;;;;;;;21.86;65.81;100622.72;5036292;28;20028;-79
2022/09/04 08:35:37;;;;;;;3.17;1.58;;;;;;;21.98;64.88;100579.22;5059635;28;20536;-79
2022/09/04 08:38:30;;;;;;;3.35;1.77;;;;;;;21.99;64.11;100496.63;5060128;28;20489;-79
2022/09/04 08:41:24;;;;;;;2.70;1.80;;;;;;;21.38;68.19;100732.47;5021811;28;20036;-78
2022/09/04 08:44:18;;;;;;;2.78;1.65;;;;;;;21.67;66.08;100684.56;5035660;28;20032;-79
2022/09/04 08:47:09;;;;;;;2.78;1.65;;;;;;;21.27;65.53;100463.41;5054859;28;20081;-78
2022/09/04 08:49:56;;;;;;;2.50;2.05;;;;;;;21.91;64.84;100645.44;5033669;28;20064;-78
2022/09/04 08:52:46;;;;;;;4.35;1.83;;;;;;;22.10;62.85;100504.72;5041769;28;20041;-78
2022/09/04 08:55:14;;;;;;;5.78;2.65;;;;;;;22.88;62.07;100675.56;5022962;28;20088;-79
2022/09/04 08:57:59;;;;;;;4.07;2.60;;;;;;;23.30;60.01;100585.31;5044297;28;20029;-78
2022/09/04 09:00:49;;;;;;;4.38;1.80;;;;;;;22.81;59.87;100433.50;5047445;28;20032;-79
2022/09/04 09:03:48;;;;;;;5.78;2.55;;;;;;;21.96;61.37;100332.16;5026867;28;20033;-78
2022/09/04 09:06:51;;;;;;;3.70;1.90;;;;;;;21.71;61.67;100299.94;5008935;28;20518;-78
2022/09/04 09:09:49;;;;;;;2.25;1.75;;;;;;;21.60;62.94;100431.22;5062136;28;20033;-77
2022/09/04 09:12:28;;;;;;;6.43;2.15;;;;;;;21.72;65.19;100747.16;5041751;28;20406;-79
2022/09/04 09:15:28;;;;;;;5.60;2.08;;;;;;;22.16;63.06;100695.09;5019480;28;20091;-79
2022/09/04 09:18:34;;;;;;;3.53;2.42;;;;;;;22.42;61.52;100547.69;5008117;28;20108;-78
2022/09/04 09:21:10;;;;;;;4.32;2.25;;;;;;;22.48;60.07;100401.75;5045077;28;20033;-78
2022/09/04 09:23:44;;;;;;;4.45;2.72;;;;;;;22.72;62.30;100775.97;5019424;28;20119;-79
2022/09/04 09:26:25;;;;;;;4.47;1.98;;;;;;;23.92;59.33;100827.66;5045955;28;20107;-79
2022/09/04 09:29:13;;;;;;;4.07;2.05;;;;;;;22.46;59.55;100333.97;5062837;28;20037;-78
2022/09/04 09:32:07;;;;;;;3.95;2.28;;;;;;;22.81;60.78;100637.59;5019834;28;20440;-78
2022/09/04 09:34:58;;;;;;;5.07;2.63;;;;;;;23.45;58.50;100587.41;5003909;28;20056;-78
2022/09/04 09:37:40;;;;;;;2.75;2.08;;;;;;;21.92;61.42;100435.06;5027171;28;20067;-77
2022/09/04 09:40:59;;;;;;;5.57;2.10;;;;;;;22.67;61.47;100710.56;5042234;28;20162;-78
2022/09/04 09:43:38;;;;;;;4.47;2.38;;;;;;;22.61;59.67;100510.19;4993668;28;20139;-79
2022/09/04 09:46:39;;;;;;;4.82;2.58;;;;;;;22.51;58.79;100350.38;5027227;28;20040;-78
2022/09/04 09:49:34;;;;;;;3.53;2.50;;;;;;;23.20;57.39;100451.72;5018944;28;20129;-79
2022/09/04 09:52:37;;;;;;;4.55;2.40;;;;;;;23.80;56.23;100521.66;5006985;28;20052;-79
2022/09/04 09:55:44;;;;;;;2.60;2.10;;;;;;;24.31;55.86;100661.28;5058395;28;20090;-78
2022/09/04 09:58:37;;;;;;;5.07;2.83;;;;;;;23.30;57.93;100528.13;5025242;28;20063;-79
2022/09/04 10:01:20;;;;;;;7.05;2.20;;;;;;;23.22;57.02;100404.06;5060138;28;20408;-79
2022/09/04 10:04:10;;;;;;;3.17;2.25;;;;;;;23.64;57.79;100710.56;5055620;28;20033;-78
2022/09/04 10:07:13;;;;;;;4.72;2.53;;;;;;;23.36;55.12;100232.91;5013865;28;20059;-79
2022/09/04 10:10:23;;;;;;;3.75;2.55;;;;;;;24.34;54.11;100456.16;5035531;28;20029;-78
2022/09/04 10:13:07;;;;;;;4.88;2.28;;;;;;;24.68;53.53;100507.75;5037998;28;20123;-80
2022/09/04 10:15:47;;;;;;;4.95;2.13;;;;;;;23.80;54.14;100230.00;5017751;28;20433;-79
2022/09/04 10:18:25;;;;;;;4.68;2.05;;;;;;;24.30;54.53;100489.69;5040345;28;20041;-78
2022/09/04 10:21:24;;;;;;;4.07;2.78;;;;;;;23.62;54.21;100211.31;5043510;28;20051;-77
2022/09/04 10:24:11;;;;;;;3.60;2.42;;;;;;;24.46;55.03;100673.44;5038872;28;20123;-79
2022/09/04 10:27:03;;;;;;;5.13;2.83;;;;;;;23.75;55.16;100388.88;5036205;28;20090;-79
2022/09/04 10:29:47;;;;;;;8.23;3.13;;;;;;;24.59;53.87;100602.13;5045308;28;20040;-79
2022/09/04 10:32:31;;;;;;;6.75;2.75;;;;;;;24.68;53.32;100559.63;5041015;28;20068;-78
2022/09/04 10:35:34;;;;;;;11.05;2.40;;;;;;;24.48;53.29;100469.41;5026129;28;20056;-79
2022/09/04 10:38:16;;;;;;;6.07;2.65;;;;;;;24.02;51.61;100007.13;5039880;28;20036;-79
2022/09/04 10:40:57;;;;;;;4.95;2.70;;;;;;;23.93;52.13;100095.16;5053093;28;20060;-79
2022/09/04 10:43:40;;;;;;;3.13;2.50;;;;;;;24.47;53.00;100440.44;5039229;28;20033;-78
2022/09/04 10:46:19;;;;;;;4.32;2.38;;;;;;;23.91;52.02;100024.53;5047091;28;20047;-78
2022/09/04 10:49:06;;;;;;;4.88;2.33;;;;;;;24.73;53.24;100586.13;5020472;28;20835;-78
2022/09/04 10:51:58;;;;;;;6.20;2.67;;;;;;;23.91;52.50;100151.84;5033636;28;20044;-79
2022/09/04 10:54:53;;;;;;;3.83;2.22;;;;;;;25.40;51.23;100571.03;5042991;28;20071;-78
2022/09/04 10:57:57;;;;;;;5.20;2.85;;;;;;;24.69;50.79;100194.69;5042085;28;20052;-78
2022/09/04 11:00:53;;;;;;;5.03;3.33;;;;;;;25.01;51.04;100407.47;5027051;28;20553;-77
2022/09/04 11:03:22;;;;;;;5.25;2.72;;;;;;;25.13;50.54;100338.97;5028938;28;20383;-79
2022/09/04 11:06:09;;;;;;;4.15;2.60;;;;;;;25.77;48.90;100371.31;5029515;28;20086;-80
2022/09/04 11:08:54;;;;;;;7.03;3.10;;;;;;;25.57;49.11;100268.28;5035593;28;20028;-78
2022/09/04 11:11:39;;;;;;;7.38;2.50;;;;;;;25.15;47.96;99927.91;5042281;28;20037;-79
2022/09/04 11:14:27;;;;;;;7.40;3.25;;;;;;;25.09;48.63;100026.53;5026112;28;20043;-78
2022/09/04 11:17:04;;;;;;;4.07;2.78;;;;;;;24.88;49.71;100104.91;5042448;28;20036;-79
2022/09/04 11:19:45;;;;;;;5.55;3.35;;;;;;;25.44;49.80;100329.75;5031498;28;20040;-79
2022/09/04 11:22:33;;;;;;;5.85;3.10;;;;;;;23.34;53.64;100079.84;5061580;28;20532;-79
2022/09/04 11:25:17;;;;;;;5.20;2.97;;;;;;;24.37;51.99;100332.03;5018777;28;20075;-78
2022/09/04 11:28:04;;;;;;;3.30;2.80;;;;;;;23.83;52.19;100120.44;5037100;28;20048;-78
2022/09/04 11:30:55;;;;;;;4.47;2.90;;;;;;;24.31;51.61;100297.66;5043998;28;20032;-78
2022/09/04 11:33:57;;;;;;;3.80;2.90;;;;;;;24.88;50.97;100410.69;5015080;28;20039;-79
2022/09/04 11:36:34;;;;;;;5.35;3.42;;;;;;;24.19;50.19;99984.25;5051091;28;20040;-78
2022/09/04 11:39:15;;;;;;;5.18;3.25;;;;;;;23.56;51.61;99884.34;5039209;28;20064;-80
2022/09/04 11:41:56;;;;;;;5.32;3.00;;;;;;;23.83;51.92;100136.78;5038006;28;20120;-79
2022/09/04 11:44:45;;;;;;;5.68;2.75;;;;;;;24.17;51.01;100155.50;5044077;28;20040;-78
2022/09/04 11:47:29;;;;;;;3.83;2.85;;;;;;;24.71;50.57;100283.41;5044008;28;20477;-77
2022/09/04 11:50:33;;;;;;;5.38;2.90;;;;;;;25.24;50.90;100592.00;5045979;28;20041;-77
2022/09/04 11:53:37;;;;;;;6.30;2.85;;;;;;;24.60;48.86;99951.53;5042851;28;20527;-77
2022/09/04 11:56:32;;;;;;;4.95;2.70;;;;;;;24.10;50.53;99980.41;5011283;28;20731;-79
2022/09/04 11:59:23;;;;;;;2.95;2.65;;;;;;;24.04;51.10;100117.81;5042758;28;20034;-79
2022/09/04 12:02:24;;;;;;;4.32;2.40;;;;;;;24.03;50.61;99956.13;5035786;28;20036;-78
2022/09/04 12:05:09;;;;;;;4.15;2.80;;;;;;;24.71;49.55;100149.66;5021871;28;20045;-79
2022/09/04 12:08:08;;;;;;;5.90;2.88;;;;;;;24.58;50.63;100248.41;5015214;28;20043;-78
2022/09/04 12:10:54;;;;;;;4.05;2.67;;;;;;;24.26;50.99;100151.16;5007750;28;20047;-78
2022/09/04 12:13:51;;;;;;;5.75;3.15;;;;;;;25.25;49.48;100403.22;5044980;28;20096;-78
2022/09/04 12:16:46;;;;;;;3.50;2.50;;;;;;;24.76;49.02;100095.06;5034078;28;20679;-78
2022/09/04 12:19:38;;;;;;;7.97;3.05;;;;;;;24.92;49.25;100152.41;5040916;28;20123;-78
2022/09/04 12:22:24;;;;;;;6.07;3.10;;;;;;;23.41;50.22;99663.69;5026882;28;20048;-79
2022/09/04 12:25:07;;;;;;;7.07;2.67;;;;;;;23.96;50.22;99945.50;5058141;28;20040;-78
2022/09/04 12:27:53;;;;;;;6.25;3.17;;;;;;;23.28;51.66;99906.63;5043337;28;20040;-78
2022/09/04 12:30:31;;;;;;;5.70;3.05;;;;;;;23.82;51.24;100146.06;5017621;28;20047;-77
2022/09/04 12:33:09;;;;;;;4.45;3.03;;;;;;;24.40;50.07;100195.13;5044833;28;20478;-79
2022/09/04 12:35:55;;;;;;;6.45;3.53;;;;;;;23.80;50.21;99909.22;5035243;28;20067;-78
2022/09/04 12:38:30;;;;;;;5.93;3.13;;;;;;;24.69;48.71;100126.47;5025347;28;20504;-78
2022/09/04 12:41:15;;;;;;;4.97;2.60;;;;;;;24.67;47.59;99881.09;5038566;28;20025;-78
2022/09/04 12:44:02;;;;;;;6.45;2.75;;;;;;;24.57;49.76;100181.28;5034237;28;20047;-78
2022/09/04 12:46:54;;;;;;;5.85;3.30;;;;;;;24.68;48.99;100150.22;5061800;28;20025;-78
2022/09/04 12:49:38;;;;;;;5.15;2.63;;;;;;;24.22;48.39;99762.81;5042685;28;20033;-78